Ovda International Airport, Israel

7:17 AM IDT on August 02, 2014 (GMT +0300)
Aqaba International (OJAQ) Elev 174 ft | 29.61 °N, 35.02 °E | Change Station

Current weather conditions updated 17 minutes ago

Clear
Clear
84 °F
Feels Like 84 °F
N
4
Wind Variable Wind from North

Today is forecast to be nearly the same temperature as yesterday.

Today
High -- | Low -- °F
--% Chance of Precip.
Yesterday
High -- | Low -- °F
Precip. -- in
5:59 AM 7:32 PM
Waxing Crescent, 32% visible
Pressure 29.65 in
Visibility -9999.0 miles
Clouds
Heat Index 84 °F
Dew Point 61 °F
Humidity 45%
Rainfall 0.00 in
Snow Depth Not available.
UV Not available.
Pollen Not available.
Air Quality Not available.
Flu Activity Not available.
METAR OJAQ 020400Z 01003KT CAVOK 29/16 Q1004 NOSIG

More Conditions Fewer Conditions

Pressure 29.65 in
Visibility -9999.0 miles
Clouds
Heat Index 84 °F
Dew Point 61 °F
Humidity 45%
Rainfall 0.00 in
Snow Depth Not available.
UV Not available.
Pollen Not available.
Air Quality Not available.
Flu Activity Not available.
METAR OJAQ 020400Z 01003KT CAVOK 29/16 Q1004 NOSIG

More Conditions Fewer Conditions

10-Day Weather Forecast

Almanac

Astronomy

Aug. 02, 2014 Rise Set
Actual Time 5:59 AM IDT 7:32 PM IDT
Civil Twilight 5:33 AM IDT 7:58 PM IDT
Nautical Twilight 5:02 AM IDT 8:29 PM IDT
Astronomical Twilight 4:30 AM IDT 9:01 PM IDT
Moon 11:31 AM IDT 11:10 PM IDT
Length of Visible Light 14h 24m
Length of Day
13h 33m
Tomorrow will be 1m 21s shorter.
Waxing Crescent, 32% of the Moon is Illuminated
Today
Waxing Crescent
Aug 3
First Quarter
Aug 10
Full
Aug 17
Last Quarter
Aug 25
New

Yesterday's Extremes

Country Highs Country Lows

Community

WunderPhotos

Upload Photos

1,739,825 photos uploaded!

Nearby

Snow Depth

Not available.

Earthquake Activity

City Distance Mag. Time & Date
No recent earthquake activity has been reported nearby.
Minimum magnitude displayed is 2.5.

Coastal Water Temperatures

Place Temperature
No Stations Reporting

Nearby Weather Stations

There are no personal weather stations in this area.